sensor_id;sensor_type;location;lat;lon;timestamp;pressure;altitude;pressure_sealevel;temperature;humidity
63395;BME280;49531;-34.520;150.798;2023-06-26T00:01:10;100099.13;;;17.29;36.88
63395;BME280;49531;-34.520;150.798;2023-06-26T00:03:37;100095.38;;;17.30;37.03
63395;BME280;49531;-34.520;150.798;2023-06-26T00:06:04;100080.06;;;17.36;36.83
63395;BME280;49531;-34.520;150.798;2023-06-26T00:08:31;100064.41;;;17.38;36.95
63395;BME280;49531;-34.520;150.798;2023-06-26T00:10:58;100056.78;;;17.30;36.74
63395;BME280;49531;-34.520;150.798;2023-06-26T00:13:25;100092.97;;;17.34;37.14
63395;BME280;49531;-34.520;150.798;2023-06-26T00:15:52;100089.88;;;17.47;36.81
63395;BME280;49531;-34.520;150.798;2023-06-26T00:18:20;100090.19;;;17.51;37.01
63395;BME280;49531;-34.520;150.798;2023-06-26T00:20:47;100102.38;;;17.53;36.81
63395;BME280;49531;-34.520;150.798;2023-06-26T00:23:16;100089.69;;;17.54;36.75
63395;BME280;49531;-34.520;150.798;2023-06-26T00:25:44;100107.00;;;17.58;36.66
63395;BME280;49531;-34.520;150.798;2023-06-26T00:28:11;100082.72;;;17.63;36.71
63395;BME280;49531;-34.520;150.798;2023-06-26T00:30:39;100100.00;;;17.62;36.75
63395;BME280;49531;-34.520;150.798;2023-06-26T00:33:06;100101.72;;;17.68;36.78
63395;BME280;49531;-34.520;150.798;2023-06-26T00:35:33;100086.50;;;17.62;36.66
63395;BME280;49531;-34.520;150.798;2023-06-26T00:38:01;100066.34;;;17.70;36.75
63395;BME280;49531;-34.520;150.798;2023-06-26T00:40:29;100072.66;;;17.80;36.46
63395;BME280;49531;-34.520;150.798;2023-06-26T00:42:56;100062.88;;;17.74;36.58
63395;BME280;49531;-34.520;150.798;2023-06-26T00:45:23;100079.13;;;17.79;36.84
63395;BME280;49531;-34.520;150.798;2023-06-26T00:47:51;100036.81;;;17.58;36.66
63395;BME280;49531;-34.520;150.798;2023-06-26T00:50:18;100054.34;;;17.87;36.63
63395;BME280;49531;-34.520;150.798;2023-06-26T00:52:46;100064.06;;;17.88;36.30
63395;BME280;49531;-34.520;150.798;2023-06-26T00:55:14;100105.94;;;17.86;36.46
63395;BME280;49531;-34.520;150.798;2023-06-26T00:57:41;100095.47;;;17.94;36.27
63395;BME280;49531;-34.520;150.798;2023-06-26T01:00:09;100046.03;;;17.94;36.21
63395;BME280;49531;-34.520;150.798;2023-06-26T01:02:36;100070.59;;;17.92;36.24
63395;BME280;49531;-34.520;150.798;2023-06-26T01:05:05;100058.16;;;17.91;36.33
63395;BME280;49531;-34.520;150.798;2023-06-26T01:07:34;100056.81;;;17.94;36.30
63395;BME280;49531;-34.520;150.798;2023-06-26T01:10:05;100077.94;;;17.97;36.21
63395;BME280;49531;-34.520;150.798;2023-06-26T01:12:33;100066.31;;;18.02;36.53
63395;BME280;49531;-34.520;150.798;2023-06-26T01:15:01;100047.69;;;18.05;36.31
63395;BME280;49531;-34.520;150.798;2023-06-26T01:17:28;100034.19;;;18.05;36.36
63395;BME280;49531;-34.520;150.798;2023-06-26T01:20:00;100081.22;;;18.09;36.33
63395;BME280;49531;-34.520;150.798;2023-06-26T01:22:45;100046.91;;;18.10;36.36
63395;BME280;49531;-34.520;150.798;2023-06-26T01:28:06;100049.69;;;18.20;36.22
63395;BME280;49531;-34.520;150.798;2023-06-26T01:30:38;100031.31;;;18.22;35.92
63395;BME280;49531;-34.520;150.798;2023-06-26T01:33:05;100038.25;;;18.08;35.88
63395;BME280;49531;-34.520;150.798;2023-06-26T01:35:33;100047.53;;;18.22;35.85
63395;BME280;49531;-34.520;150.798;2023-06-26T01:38:17;100038.91;;;18.25;35.92
63395;BME280;49531;-34.520;150.798;2023-06-26T01:40:45;100031.88;;;18.24;35.78
63395;BME280;49531;-34.520;150.798;2023-06-26T01:43:27;100029.22;;;18.29;35.71
63395;BME280;49531;-34.520;150.798;2023-06-26T01:46:06;100040.53;;;18.26;35.97
63395;BME280;49531;-34.520;150.798;2023-06-26T01:48:46;99989.19;;;18.26;35.61
63395;BME280;49531;-34.520;150.798;2023-06-26T01:51:18;100021.69;;;18.36;35.46
63395;BME280;49531;-34.520;150.798;2023-06-26T01:53:53;100033.84;;;18.33;35.46
63395;BME280;49531;-34.520;150.798;2023-06-26T01:56:22;99999.75;;;18.32;35.65
63395;BME280;49531;-34.520;150.798;2023-06-26T01:58:51;99993.25;;;18.28;35.49
63395;BME280;49531;-34.520;150.798;2023-06-26T02:01:21;99987.06;;;18.33;35.32
63395;BME280;49531;-34.520;150.798;2023-06-26T02:03:49;99989.75;;;18.33;35.41
63395;BME280;49531;-34.520;150.798;2023-06-26T02:06:16;99994.91;;;18.40;35.28
63395;BME280;49531;-34.520;150.798;2023-06-26T02:08:43;99980.06;;;18.37;35.58
63395;BME280;49531;-34.520;150.798;2023-06-26T02:11:10;100001.38;;;18.33;35.38
63395;BME280;49531;-34.520;150.798;2023-06-26T02:13:37;99993.84;;;18.36;35.58
63395;BME280;49531;-34.520;150.798;2023-06-26T02:16:05;99998.72;;;18.39;35.26
63395;BME280;49531;-34.520;150.798;2023-06-26T02:18:32;99996.81;;;18.39;35.30
63395;BME280;49531;-34.520;150.798;2023-06-26T02:20:59;99988.13;;;18.32;35.51
63395;BME280;49531;-34.520;150.798;2023-06-26T02:23:28;100017.91;;;18.37;35.49
63395;BME280;49531;-34.520;150.798;2023-06-26T02:25:55;99991.38;;;18.34;35.57
63395;BME280;49531;-34.520;150.798;2023-06-26T02:28:22;99999.22;;;18.41;35.57
63395;BME280;49531;-34.520;150.798;2023-06-26T02:30:49;99995.25;;;18.53;35.18
63395;BME280;49531;-34.520;150.798;2023-06-26T02:33:17;100054.19;;;18.51;35.05
63395;BME280;49531;-34.520;150.798;2023-06-26T02:35:44;99988.84;;;18.64;34.66
63395;BME280;49531;-34.520;150.798;2023-06-26T02:38:11;100010.25;;;18.76;34.59
63395;BME280;49531;-34.520;150.798;2023-06-26T02:40:39;99989.66;;;18.70;34.99
63395;BME280;49531;-34.520;150.798;2023-06-26T02:43:06;99993.09;;;18.55;35.19
63395;BME280;49531;-34.520;150.798;2023-06-26T02:45:34;99971.75;;;18.59;35.18
63395;BME280;49531;-34.520;150.798;2023-06-26T02:48:01;99969.34;;;18.62;35.08
63395;BME280;49531;-34.520;150.798;2023-06-26T02:50:28;99983.38;;;18.59;34.79
63395;BME280;49531;-34.520;150.798;2023-06-26T02:52:56;99976.94;;;18.65;34.72
63395;BME280;49531;-34.520;150.798;2023-06-26T02:55:23;99965.63;;;18.79;34.61
63395;BME280;49531;-34.520;150.798;2023-06-26T02:57:51;99986.66;;;18.61;34.85
63395;BME280;49531;-34.520;150.798;2023-06-26T03:00:18;99998.84;;;18.64;35.08
63395;BME280;49531;-34.520;150.798;2023-06-26T03:02:45;99976.84;;;18.50;35.27
63395;BME280;49531;-34.520;150.798;2023-06-26T03:05:13;99993.06;;;18.50;35.12
63395;BME280;49531;-34.520;150.798;2023-06-26T03:07:40;99996.31;;;18.52;35.32
63395;BME280;49531;-34.520;150.798;2023-06-26T03:10:07;100006.66;;;18.60;35.14
63395;BME280;49531;-34.520;150.798;2023-06-26T03:12:34;99962.25;;;18.56;35.15
63395;BME280;49531;-34.520;150.798;2023-06-26T03:15:02;99988.22;;;18.52;35.53
63395;BME280;49531;-34.520;150.798;2023-06-26T03:17:29;99987.69;;;18.55;35.30
63395;BME280;49531;-34.520;150.798;2023-06-26T03:19:56;100008.44;;;18.45;35.38
63395;BME280;49531;-34.520;150.798;2023-06-26T03:22:23;99968.44;;;18.37;35.19
63395;BME280;49531;-34.520;150.798;2023-06-26T03:24:51;100008.22;;;18.56;35.29
63395;BME280;49531;-34.520;150.798;2023-06-26T03:27:18;99975.44;;;18.43;35.72
63395;BME280;49531;-34.520;150.798;2023-06-26T03:29:46;99983.59;;;18.48;35.76
63395;BME280;49531;-34.520;150.798;2023-06-26T03:32:13;100003.38;;;18.58;35.54
63395;BME280;49531;-34.520;150.798;2023-06-26T03:34:40;99992.28;;;18.55;35.74
63395;BME280;49531;-34.520;150.798;2023-06-26T03:37:07;99995.84;;;18.60;35.64
63395;BME280;49531;-34.520;150.798;2023-06-26T03:39:34;100029.41;;;18.64;35.52
63395;BME280;49531;-34.520;150.798;2023-06-26T03:42:02;100025.59;;;18.60;35.63
63395;BME280;49531;-34.520;150.798;2023-06-26T03:44:29;99979.28;;;18.52;35.70
63395;BME280;49531;-34.520;150.798;2023-06-26T03:46:56;100023.13;;;18.59;35.63
63395;BME280;49531;-34.520;150.798;2023-06-26T03:49:23;100002.81;;;18.51;35.62
63395;BME280;49531;-34.520;150.798;2023-06-26T03:51:51;99992.00;;;18.56;35.64
63395;BME280;49531;-34.520;150.798;2023-06-26T03:54:18;100042.31;;;18.57;35.68
63395;BME280;49531;-34.520;150.798;2023-06-26T03:56:45;100000.38;;;18.55;35.57
63395;BME280;49531;-34.520;150.798;2023-06-26T03:59:14;100014.16;;;18.53;35.76
63395;BME280;49531;-34.520;150.798;2023-06-26T04:01:41;100009.03;;;18.57;35.85
63395;BME280;49531;-34.520;150.798;2023-06-26T04:04:08;100008.78;;;18.58;35.80
63395;BME280;49531;-34.520;150.798;2023-06-26T04:06:36;100018.25;;;18.56;35.67
63395;BME280;49531;-34.520;150.798;2023-06-26T04:09:03;100058.00;;;18.55;35.58
63395;BME280;49531;-34.520;150.798;2023-06-26T04:11:31;100021.22;;;18.54;35.75
63395;BME280;49531;-34.520;150.798;2023-06-26T04:13:58;99983.00;;;18.41;35.84
63395;BME280;49531;-34.520;150.798;2023-06-26T04:16:25;99996.81;;;18.44;35.84
63395;BME280;49531;-34.520;150.798;2023-06-26T04:18:53;100065.00;;;18.51;36.04
63395;BME280;49531;-34.520;150.798;2023-06-26T04:21:23;99977.31;;;18.32;36.01
63395;BME280;49531;-34.520;150.798;2023-06-26T04:23:51;100007.91;;;18.43;35.93
63395;BME280;49531;-34.520;150.798;2023-06-26T04:26:18;100053.38;;;18.51;35.89
63395;BME280;49531;-34.520;150.798;2023-06-26T04:28:45;100034.69;;;18.49;36.00
63395;BME280;49531;-34.520;150.798;2023-06-26T04:31:13;100026.28;;;18.36;36.16
63395;BME280;49531;-34.520;150.798;2023-06-26T04:33:40;100048.75;;;18.46;36.03
63395;BME280;49531;-34.520;150.798;2023-06-26T04:36:07;100062.81;;;18.48;36.26
63395;BME280;49531;-34.520;150.798;2023-06-26T04:38:35;100036.00;;;18.42;36.39
63395;BME280;49531;-34.520;150.798;2023-06-26T04:41:02;100049.00;;;18.45;36.16
63395;BME280;49531;-34.520;150.798;2023-06-26T04:43:30;100039.00;;;18.45;36.23
63395;BME280;49531;-34.520;150.798;2023-06-26T04:45:57;100065.00;;;18.51;36.20
63395;BME280;49531;-34.520;150.798;2023-06-26T04:48:24;100062.78;;;18.43;36.42
63395;BME280;49531;-34.520;150.798;2023-06-26T04:50:55;100070.38;;;18.46;36.61
63395;BME280;49531;-34.520;150.798;2023-06-26T04:53:23;100078.53;;;18.51;36.48
63395;BME280;49531;-34.520;150.798;2023-06-26T04:55:51;100065.81;;;18.52;36.31
63395;BME280;49531;-34.520;150.798;2023-06-26T04:58:19;100061.19;;;18.47;36.09
63395;BME280;49531;-34.520;150.798;2023-06-26T05:00:47;100062.78;;;18.43;36.34
63395;BME280;49531;-34.520;150.798;2023-06-26T05:03:16;100072.53;;;18.44;36.24
63395;BME280;49531;-34.520;150.798;2023-06-26T05:05:44;100047.63;;;18.42;36.37
63395;BME280;49531;-34.520;150.798;2023-06-26T05:08:16;100028.22;;;18.50;35.69
63395;BME280;49531;-34.520;150.798;2023-06-26T05:10:45;100064.03;;;18.68;35.54
63395;BME280;49531;-34.520;150.798;2023-06-26T05:13:15;100034.72;;;18.54;35.60
63395;BME280;49531;-34.520;150.798;2023-06-26T05:15:44;100061.25;;;18.57;35.80
63395;BME280;49531;-34.520;150.798;2023-06-26T05:18:12;100066.63;;;18.52;35.76
63395;BME280;49531;-34.520;150.798;2023-06-26T05:20:39;100061.22;;;18.52;35.92
63395;BME280;49531;-34.520;150.798;2023-06-26T05:23:06;100074.50;;;18.59;35.86
63395;BME280;49531;-34.520;150.798;2023-06-26T05:25:34;100055.25;;;18.50;36.05
63395;BME280;49531;-34.520;150.798;2023-06-26T05:28:02;100065.81;;;18.52;35.87
63395;BME280;49531;-34.520;150.798;2023-06-26T05:30:32;100083.38;;;18.49;35.58
63395;BME280;49531;-34.520;150.798;2023-06-26T05:33:02;100080.66;;;18.49;35.68
63395;BME280;49531;-34.520;150.798;2023-06-26T05:35:30;100065.28;;;18.55;35.61
63395;BME280;49531;-34.520;150.798;2023-06-26T05:37:59;100052.63;;;18.60;35.34
63395;BME280;49531;-34.520;150.798;2023-06-26T05:40:26;100060.66;;;18.50;35.54
63395;BME280;49531;-34.520;150.798;2023-06-26T05:42:53;100072.59;;;18.54;35.66
63395;BME280;49531;-34.520;150.798;2023-06-26T05:45:21;100075.03;;;18.56;35.42
63395;BME280;49531;-34.520;150.798;2023-06-26T05:47:48;100055.03;;;18.57;35.38
63395;BME280;49531;-34.520;150.798;2023-06-26T05:50:18;100086.19;;;18.64;35.02
63395;BME280;49531;-34.520;150.798;2023-06-26T05:52:46;100077.22;;;18.59;35.41
63395;BME280;49531;-34.520;150.798;2023-06-26T05:55:14;100081.34;;;18.67;35.18
63395;BME280;49531;-34.520;150.798;2023-06-26T05:57:41;100085.59;;;18.57;34.99
63395;BME280;49531;-34.520;150.798;2023-06-26T06:00:09;100052.06;;;18.58;35.11
63395;BME280;49531;-34.520;150.798;2023-06-26T06:02:38;100082.06;;;18.57;35.11
63395;BME280;49531;-34.520;150.798;2023-06-26T06:05:05;100061.50;;;18.56;34.97
63395;BME280;49531;-34.520;150.798;2023-06-26T06:07:34;100058.22;;;18.49;34.72
63395;BME280;49531;-34.520;150.798;2023-06-26T06:10:02;100058.78;;;18.51;34.79
63395;BME280;49531;-34.520;150.798;2023-06-26T06:12:29;100044.69;;;18.44;34.83
63395;BME280;49531;-34.520;150.798;2023-06-26T06:14:56;100062.25;;;18.46;34.69
63395;BME280;49531;-34.520;150.798;2023-06-26T06:17:23;100050.13;;;18.49;34.82
63395;BME280;49531;-34.520;150.798;2023-06-26T06:19:51;100069.34;;;18.52;34.80
63395;BME280;49531;-34.520;150.798;2023-06-26T06:22:18;100116.09;;;18.48;34.83
63395;BME280;49531;-34.520;150.798;2023-06-26T06:24:45;100056.34;;;18.49;34.85
63395;BME280;49531;-34.520;150.798;2023-06-26T06:27:13;100068.50;;;18.52;34.88
63395;BME280;49531;-34.520;150.798;2023-06-26T06:29:40;100097.44;;;18.51;34.91
63395;BME280;49531;-34.520;150.798;2023-06-26T06:32:08;100029.78;;;18.36;35.03
63395;BME280;49531;-34.520;150.798;2023-06-26T06:34:35;100053.56;;;18.34;35.20
63395;BME280;49531;-34.520;150.798;2023-06-26T06:37:03;100095.53;;;18.47;35.20
63395;BME280;49531;-34.520;150.798;2023-06-26T06:39:30;100107.41;;;18.46;35.12
63395;BME280;49531;-34.520;150.798;2023-06-26T06:41:58;100080.13;;;18.47;35.22
63395;BME280;49531;-34.520;150.798;2023-06-26T06:44:25;100098.53;;;18.50;35.10
63395;BME280;49531;-34.520;150.798;2023-06-26T06:46:52;100103.63;;;18.47;35.39
63395;BME280;49531;-34.520;150.798;2023-06-26T06:49:19;100086.03;;;18.39;35.71
63395;BME280;49531;-34.520;150.798;2023-06-26T06:51:46;100103.88;;;18.40;35.64
63395;BME280;49531;-34.520;150.798;2023-06-26T06:54:15;100070.34;;;18.36;35.89
63395;BME280;49531;-34.520;150.798;2023-06-26T06:56:43;100109.00;;;18.42;35.61
63395;BME280;49531;-34.520;150.798;2023-06-26T06:59:11;100086.28;;;18.32;35.97
63395;BME280;49531;-34.520;150.798;2023-06-26T07:01:39;100077.56;;;18.25;35.97
63395;BME280;49531;-34.520;150.798;2023-06-26T07:04:07;100093.88;;;18.36;35.97
63395;BME280;49531;-34.520;150.798;2023-06-26T07:06:34;100080.59;;;18.34;35.69
63395;BME280;49531;-34.520;150.798;2023-06-26T07:09:02;100071.91;;;18.27;36.06
63395;BME280;49531;-34.520;150.798;2023-06-26T07:11:29;100069.75;;;18.29;36.13
63395;BME280;49531;-34.520;150.798;2023-06-26T07:13:56;100065.47;;;18.33;35.94
63395;BME280;49531;-34.520;150.798;2023-06-26T07:16:23;100095.16;;;18.28;36.19
63395;BME280;49531;-34.520;150.798;2023-06-26T07:18:50;100134.13;;;18.32;35.89
63395;BME280;49531;-34.520;150.798;2023-06-26T07:21:18;100088.69;;;18.29;36.05
63395;BME280;49531;-34.520;150.798;2023-06-26T07:23:45;100110.53;;;18.22;35.96
63395;BME280;49531;-34.520;150.798;2023-06-26T07:26:14;100102.72;;;18.26;36.04
63395;BME280;49531;-34.520;150.798;2023-06-26T07:28:42;100114.81;;;18.18;36.06
63395;BME280;49531;-34.520;150.798;2023-06-26T07:31:09;100115.38;;;18.20;36.09
63395;BME280;49531;-34.520;150.798;2023-06-26T07:33:36;100108.03;;;18.16;36.09
63395;BME280;49531;-34.520;150.798;2023-06-26T07:36:04;100118.84;;;18.16;36.31
63395;BME280;49531;-34.520;150.798;2023-06-26T07:38:31;100120.47;;;18.17;36.32
63395;BME280;49531;-34.520;150.798;2023-06-26T07:40:59;100139.09;;;18.13;36.37
63395;BME280;49531;-34.520;150.798;2023-06-26T07:43:26;100126.31;;;18.04;36.62
63395;BME280;49531;-34.520;150.798;2023-06-26T07:45:53;100142.84;;;18.07;36.66
63395;BME280;49531;-34.520;150.798;2023-06-26T07:48:20;100165.56;;;18.11;36.62
63395;BME280;49531;-34.520;150.798;2023-06-26T07:50:48;100138.09;;;17.87;36.74
63395;BME280;49531;-34.520;150.798;2023-06-26T07:53:15;100176.28;;;18.01;36.86
63395;BME280;49531;-34.520;150.798;2023-06-26T07:55:43;100144.22;;;18.10;36.94
63395;BME280;49531;-34.520;150.798;2023-06-26T07:58:10;100136.31;;;18.03;36.99
63395;BME280;49531;-34.520;150.798;2023-06-26T08:00:37;100163.84;;;18.00;37.18
63395;BME280;49531;-34.520;150.798;2023-06-26T08:03:05;100178.16;;;17.95;37.26
63395;BME280;49531;-34.520;150.798;2023-06-26T08:05:32;100137.78;;;17.84;37.51
63395;BME280;49531;-34.520;150.798;2023-06-26T08:08:00;100161.84;;;17.85;37.56
63395;BME280;49531;-34.520;150.798;2023-06-26T08:10:29;100171.41;;;17.98;37.48
63395;BME280;49531;-34.520;150.798;2023-06-26T08:12:56;100185.69;;;17.93;37.57
63395;BME280;49531;-34.520;150.798;2023-06-26T08:15:24;100186.00;;;17.97;37.53
63395;BME280;49531;-34.520;150.798;2023-06-26T08:17:52;100191.34;;;17.92;37.88
63395;BME280;49531;-34.520;150.798;2023-06-26T08:20:19;100184.16;;;17.76;37.81
63395;BME280;49531;-34.520;150.798;2023-06-26T08:22:46;100214.84;;;17.91;37.94
63395;BME280;49531;-34.520;150.798;2023-06-26T08:25:15;100209.34;;;17.81;37.72
63395;BME280;49531;-34.520;150.798;2023-06-26T08:27:42;100247.97;;;17.82;37.91
63395;BME280;49531;-34.520;150.798;2023-06-26T08:30:10;100231.00;;;17.86;37.94
63395;BME280;49531;-34.520;150.798;2023-06-26T08:32:37;100228.13;;;17.71;37.77
63395;BME280;49531;-34.520;150.798;2023-06-26T08:35:05;100252.31;;;17.83;38.01
63395;BME280;49531;-34.520;150.798;2023-06-26T08:37:33;100262.88;;;17.84;37.94
63395;BME280;49531;-34.520;150.798;2023-06-26T08:40:00;100268.97;;;17.75;37.94
63395;BME280;49531;-34.520;150.798;2023-06-26T08:42:28;100272.03;;;17.83;38.12
63395;BME280;49531;-34.520;150.798;2023-06-26T08:44:55;100278.63;;;17.71;38.19
63395;BME280;49531;-34.520;150.798;2023-06-26T08:47:22;100273.72;;;17.67;38.07
63395;BME280;49531;-34.520;150.798;2023-06-26T08:50:01;100281.09;;;17.72;37.97
63395;BME280;49531;-34.520;150.798;2023-06-26T08:52:33;100275.06;;;17.65;38.32
63395;BME280;49531;-34.520;150.798;2023-06-26T08:55:04;100305.06;;;17.69;38.39
63395;BME280;49531;-34.520;150.798;2023-06-26T08:57:34;100289.94;;;17.67;38.38
63395;BME280;49531;-34.520;150.798;2023-06-26T09:00:03;100305.97;;;17.74;38.26
63395;BME280;49531;-34.520;150.798;2023-06-26T09:02:31;100301.06;;;17.71;38.50
63395;BME280;49531;-34.520;150.798;2023-06-26T09:04:58;100308.28;;;17.65;38.50
63395;BME280;49531;-34.520;150.798;2023-06-26T09:07:26;100304.16;;;17.63;38.49
63395;BME280;49531;-34.520;150.798;2023-06-26T09:09:53;100305.56;;;17.65;38.41
63395;BME280;49531;-34.520;150.798;2023-06-26T09:12:21;100326.69;;;17.69;38.29
63395;BME280;49531;-34.520;150.798;2023-06-26T09:14:48;100312.00;;;17.64;38.47
63395;BME280;49531;-34.520;150.798;2023-06-26T09:17:16;100318.63;;;17.52;38.61
63395;BME280;49531;-34.520;150.798;2023-06-26T09:19:45;100313.22;;;17.52;38.38
63395;BME280;49531;-34.520;150.798;2023-06-26T09:22:14;100318.88;;;17.50;38.47
63395;BME280;49531;-34.520;150.798;2023-06-26T09:24:43;100348.97;;;17.59;38.44
63395;BME280;49531;-34.520;150.798;2023-06-26T09:27:10;100366.41;;;17.51;38.47
63395;BME280;49531;-34.520;150.798;2023-06-26T09:29:38;100363.25;;;17.59;38.55
63395;BME280;49531;-34.520;150.798;2023-06-26T09:32:08;100356.78;;;17.60;38.46
63395;BME280;49531;-34.520;150.798;2023-06-26T09:34:36;100369.19;;;17.56;38.57
63395;BME280;49531;-34.520;150.798;2023-06-26T09:37:03;100383.44;;;17.52;38.58
63395;BME280;49531;-34.520;150.798;2023-06-26T09:39:31;100391.84;;;17.55;38.50
63395;BME280;49531;-34.520;150.798;2023-06-26T09:41:59;100399.88;;;17.50;38.71
63395;BME280;49531;-34.520;150.798;2023-06-26T09:44:31;100428.75;;;17.50;38.80
63395;BME280;49531;-34.520;150.798;2023-06-26T09:46:58;100415.19;;;17.45;38.75
63395;BME280;49531;-34.520;150.798;2023-06-26T09:49:25;100417.94;;;17.50;38.49
63395;BME280;49531;-34.520;150.798;2023-06-26T09:51:53;100415.00;;;17.51;38.72
63395;BME280;49531;-34.520;150.798;2023-06-26T09:54:22;100468.19;;;17.51;38.72
63395;BME280;49531;-34.520;150.798;2023-06-26T09:56:50;100446.09;;;17.37;38.81
63395;BME280;49531;-34.520;150.798;2023-06-26T09:59:18;100462.13;;;17.44;38.89
63395;BME280;49531;-34.520;150.798;2023-06-26T10:01:46;100463.19;;;17.43;38.65
63395;BME280;49531;-34.520;150.798;2023-06-26T10:04:13;100466.38;;;17.40;38.81
63395;BME280;49531;-34.520;150.798;2023-06-26T10:06:48;100466.06;;;17.36;38.91
63395;BME280;49531;-34.520;150.798;2023-06-26T10:09:19;100488.56;;;17.42;39.01
63395;BME280;49531;-34.520;150.798;2023-06-26T10:12:01;100513.69;;;17.42;39.03
63395;BME280;49531;-34.520;150.798;2023-06-26T10:14:36;100508.19;;;17.37;38.98
63395;BME280;49531;-34.520;150.798;2023-06-26T10:17:08;100508.44;;;17.36;38.94
63395;BME280;49531;-34.520;150.798;2023-06-26T10:19:38;100508.28;;;17.42;38.92
63395;BME280;49531;-34.520;150.798;2023-06-26T10:22:07;100517.59;;;17.34;38.89
63395;BME280;49531;-34.520;150.798;2023-06-26T10:24:36;100524.13;;;17.39;38.84
63395;BME280;49531;-34.520;150.798;2023-06-26T10:27:20;100536.00;;;17.38;38.78
63395;BME280;49531;-34.520;150.798;2023-06-26T10:29:51;100544.09;;;17.38;38.57
63395;BME280;49531;-34.520;150.798;2023-06-26T10:32:22;100547.88;;;17.37;38.56
63395;BME280;49531;-34.520;150.798;2023-06-26T10:34:51;100524.53;;;17.30;38.51
63395;BME280;49531;-34.520;150.798;2023-06-26T10:37:19;100540.16;;;17.28;38.71
63395;BME280;49531;-34.520;150.798;2023-06-26T10:39:49;100550.94;;;17.28;38.75
63395;BME280;49531;-34.520;150.798;2023-06-26T10:42:17;100562.56;;;17.29;38.95
63395;BME280;49531;-34.520;150.798;2023-06-26T10:44:46;100536.78;;;17.21;38.84
63395;BME280;49531;-34.520;150.798;2023-06-26T10:47:33;100536.06;;;17.26;39.02
63395;BME280;49531;-34.520;150.798;2023-06-26T10:50:17;100532.44;;;17.20;39.02
63395;BME280;49531;-34.520;150.798;2023-06-26T10:52:45;100536.53;;;17.23;39.29
63395;BME280;49531;-34.520;150.798;2023-06-26T10:55:14;100544.41;;;17.24;39.13
63395;BME280;49531;-34.520;150.798;2023-06-26T10:57:46;100543.59;;;17.24;39.12
63395;BME280;49531;-34.520;150.798;2023-06-26T11:00:16;100546.94;;;17.14;39.25
63395;BME280;49531;-34.520;150.798;2023-06-26T11:02:49;100570.22;;;17.20;39.55
63395;BME280;49531;-34.520;150.798;2023-06-26T11:05:25;100557.25;;;17.17;39.33
63395;BME280;49531;-34.520;150.798;2023-06-26T11:08:07;100545.28;;;17.13;39.39
63395;BME280;49531;-34.520;150.798;2023-06-26T11:10:48;100533.44;;;17.14;39.51
63395;BME280;49531;-34.520;150.798;2023-06-26T11:13:18;100529.69;;;17.15;39.46
63395;BME280;49531;-34.520;150.798;2023-06-26T11:15:47;100522.66;;;17.14;39.43
63395;BME280;49531;-34.520;150.798;2023-06-26T11:18:16;100528.53;;;17.11;39.64
63395;BME280;49531;-34.520;150.798;2023-06-26T11:20:43;100527.03;;;17.04;39.50
63395;BME280;49531;-34.520;150.798;2023-06-26T11:23:10;100560.09;;;17.11;39.59
63395;BME280;49531;-34.520;150.798;2023-06-26T11:25:39;100576.03;;;17.12;39.55
63395;BME280;49531;-34.520;150.798;2023-06-26T11:28:09;100588.94;;;17.10;39.66
63395;BME280;49531;-34.520;150.798;2023-06-26T11:30:37;100599.75;;;17.10;39.50
63395;BME280;49531;-34.520;150.798;2023-06-26T11:33:08;100601.72;;;17.15;39.50
63395;BME280;49531;-34.520;150.798;2023-06-26T11:35:36;100581.00;;;17.04;39.33
63395;BME280;49531;-34.520;150.798;2023-06-26T11:38:04;100610.44;;;17.05;39.64
63395;BME280;49531;-34.520;150.798;2023-06-26T11:40:34;100607.41;;;17.02;39.70
63395;BME280;49531;-34.520;150.798;2023-06-26T11:43:02;100605.53;;;17.02;39.71
63395;BME280;49531;-34.520;150.798;2023-06-26T11:45:31;100618.19;;;17.02;39.83
63395;BME280;49531;-34.520;150.798;2023-06-26T11:48:00;100616.78;;;16.99;39.84
63395;BME280;49531;-34.520;150.798;2023-06-26T11:50:27;100625.34;;;16.96;40.02
63395;BME280;49531;-34.520;150.798;2023-06-26T11:52:56;100619.38;;;16.94;39.99
63395;BME280;49531;-34.520;150.798;2023-06-26T11:55:25;100637.22;;;16.95;39.83
63395;BME280;49531;-34.520;150.798;2023-06-26T11:57:54;100640.28;;;16.87;40.01
63395;BME280;49531;-34.520;150.798;2023-06-26T12:00:22;100656.34;;;16.93;39.89
63395;BME280;49531;-34.520;150.798;2023-06-26T12:02:50;100685.41;;;16.91;40.14
63395;BME280;49531;-34.520;150.798;2023-06-26T12:05:18;100680.25;;;16.90;40.07
63395;BME280;49531;-34.520;150.798;2023-06-26T12:07:47;100683.91;;;16.84;39.78
63395;BME280;49531;-34.520;150.798;2023-06-26T12:10:15;100691.28;;;16.88;40.01
63395;BME280;49531;-34.520;150.798;2023-06-26T12:12:45;100698.22;;;16.84;40.14
63395;BME280;49531;-34.520;150.798;2023-06-26T12:15:15;100687.66;;;16.83;40.17
63395;BME280;49531;-34.520;150.798;2023-06-26T12:17:43;100671.28;;;16.73;40.10
63395;BME280;49531;-34.520;150.798;2023-06-26T12:20:20;100676.03;;;16.82;40.28
63395;BME280;49531;-34.520;150.798;2023-06-26T12:22:48;100673.94;;;16.84;40.15
63395;BME280;49531;-34.520;150.798;2023-06-26T12:25:23;100693.28;;;16.81;40.21
63395;BME280;49531;-34.520;150.798;2023-06-26T12:27:50;100693.06;;;16.83;40.19
63395;BME280;49531;-34.520;150.798;2023-06-26T12:30:17;100709.69;;;16.80;40.14